createdAt,value
2018-09-05T00:02:23.764Z,94994.29
2018-09-05T00:04:52.553Z,94998.16
2018-09-05T00:07:21.384Z,94998.33
2018-09-05T00:09:50.066Z,95000.33
2018-09-05T00:12:19.420Z,95007.74
2018-09-05T00:14:48.366Z,95006.77
2018-09-05T00:17:17.335Z,95010.88
2018-09-05T00:19:46.232Z,95005.60
2018-09-05T00:22:15.142Z,95011.06
2018-09-05T00:24:44.228Z,95015.95
2018-09-05T00:27:13.568Z,95014.80
2018-09-05T00:29:42.492Z,95015.78
2018-09-05T00:32:11.532Z,95021.03
2018-09-05T00:34:40.491Z,95020.43
2018-09-05T00:37:09.646Z,95019.06
2018-09-05T00:39:38.357Z,95011.44
2018-09-05T00:42:07.117Z,95008.11
2018-09-05T00:44:35.996Z,95010.24
2018-09-05T00:47:04.858Z,95008.48
2018-09-05T00:49:33.835Z,95010.64
2018-09-05T00:52:03.308Z,95002.48
2018-09-05T00:54:32.045Z,94996.62
2018-09-05T00:57:00.950Z,95005.03
2018-09-05T00:59:29.842Z,95005.42
2018-09-05T01:01:58.784Z,95002.88
2018-09-05T01:04:27.576Z,95006.77
2018-09-05T01:06:56.304Z,95006.13
2018-09-05T01:09:25.342Z,95004.73
2018-09-05T01:11:54.236Z,95004.73
2018-09-05T01:14:23.127Z,95013.70
2018-09-05T01:16:51.914Z,95006.67
2018-09-05T01:19:20.885Z,95002.77
2018-09-05T01:21:49.567Z,95004.36
2018-09-05T01:24:18.608Z,95000.85
2018-09-05T01:26:47.434Z,95007.63
2018-09-05T01:29:16.287Z,95009.78
2018-09-05T01:31:44.963Z,95004.52
2018-09-05T01:34:13.776Z,95009.16
2018-09-05T01:36:42.706Z,95009.58
2018-09-05T01:39:11.379Z,95007.23
2018-09-05T01:41:40.171Z,95013.04
2018-09-05T01:44:09.369Z,95010.31
2018-09-05T01:46:38.712Z,94999.77
2018-09-05T01:49:07.710Z,94627.72
2018-09-05T01:51:36.500Z,95008.23
2018-09-05T01:54:05.186Z,95008.03
2018-09-05T01:56:34.080Z,95006.42
2018-09-05T01:59:02.822Z,95005.25
2018-09-05T02:01:31.742Z,94997.43
2018-09-05T02:04:00.716Z,95000.20
2018-09-05T02:06:30.299Z,95004.13
2018-09-05T02:08:59.241Z,94996.69
2018-09-05T02:11:28.149Z,95004.83
2018-09-05T02:13:56.933Z,94995.85
2018-09-05T02:16:25.702Z,94997.22
2018-09-05T02:18:54.468Z,95005.20
2018-09-05T02:21:23.925Z,95009.47
2018-09-05T02:23:52.868Z,95015.35
2018-09-05T02:26:21.683Z,95005.35
2018-09-05T02:28:50.327Z,95010.23
2018-09-05T02:31:19.267Z,95010.47
2018-09-05T02:33:48.154Z,95016.87
2018-09-05T02:36:17.192Z,95012.75
2018-09-05T02:38:46.657Z,95027.58
2018-09-05T02:41:15.483Z,95029.15
2018-09-05T02:43:49.526Z,95029.73
2018-09-05T02:46:18.391Z,95029.94
2018-09-05T02:48:47.156Z,95031.09
2018-09-05T02:51:16.130Z,95038.87
2018-09-05T02:53:44.862Z,95035.73
2018-09-05T02:56:13.794Z,95033.93
2018-09-05T02:58:42.728Z,95035.51
2018-09-05T03:01:11.447Z,95039.68
2018-09-05T03:03:40.150Z,95039.28
2018-09-05T03:06:09.372Z,95045.88
2018-09-05T03:08:38.168Z,95045.88
2018-09-05T03:11:07.064Z,95044.30
2018-09-05T03:13:35.787Z,95047.32
2018-09-05T03:16:05.168Z,95040.25
2018-09-05T03:18:34.023Z,94988.02
2018-09-05T03:21:02.667Z,95054.59
2018-09-05T03:23:31.506Z,95052.25
2018-09-05T03:26:00.219Z,95051.47
2018-09-05T03:28:29.088Z,95049.66
2018-09-05T03:30:58.221Z,95047.95
2018-09-05T03:33:27.087Z,95043.45
2018-09-05T03:35:55.908Z,95042.50
2018-09-05T03:38:24.828Z,95051.82
2018-09-05T03:40:53.695Z,95053.58
2018-09-05T03:43:22.626Z,95066.41
2018-09-05T03:45:51.328Z,95058.46
2018-09-05T03:48:20.116Z,95054.59
2018-09-05T03:50:53.594Z,95055.73
2018-09-05T03:53:22.378Z,95056.56
2018-09-05T03:55:51.189Z,95061.75
2018-09-05T03:58:20.835Z,95061.23
2018-09-05T04:00:49.485Z,95058.85
2018-09-05T04:03:18.219Z,95066.12
2018-09-05T04:05:46.962Z,95073.30
2018-09-05T04:08:15.767Z,95075.55
2018-09-05T04:10:44.466Z,95076.87
2018-09-05T04:13:13.319Z,95072.66
2018-09-05T04:15:42.006Z,95088.80
2018-09-05T04:18:10.830Z,95075.22
2018-09-05T04:20:39.604Z,95086.73
2018-09-05T04:23:08.341Z,95085.20
2018-09-05T04:25:37.159Z,95094.12
2018-09-05T04:28:05.964Z,95088.58
2018-09-05T04:30:34.910Z,95096.75
2018-09-05T04:33:03.644Z,95082.81
2018-09-05T04:35:32.310Z,95090.59
2018-09-05T04:38:00.952Z,95083.22
2018-09-05T04:40:29.721Z,95085.68
2018-09-05T04:42:58.347Z,95092.11
2018-09-05T04:45:27.111Z,95101.27
2018-09-05T04:47:55.915Z,95089.94
2018-09-05T04:50:24.692Z,95090.38
2018-09-05T04:52:53.321Z,95090.55
2018-09-05T04:55:22.026Z,95092.70
2018-09-05T04:57:50.678Z,95094.84
2018-09-05T05:00:19.363Z,95093.47
2018-09-05T05:02:48.168Z,95093.29
2018-09-05T05:05:16.825Z,95100.17
2018-09-05T05:07:45.630Z,95103.77
2018-09-05T05:10:14.478Z,95096.61
2018-09-05T05:12:43.269Z,95094.34
2018-09-05T05:15:11.983Z,95102.13
2018-09-05T05:17:40.687Z,95099.55
2018-09-05T05:20:09.395Z,95109.59
2018-09-05T05:22:38.172Z,95110.41
2018-09-05T05:25:07.077Z,95095.82
2018-09-05T05:27:35.797Z,94923.02
2018-09-05T05:30:06.135Z,95105.02
2018-09-05T05:32:35.126Z,95105.66
2018-09-05T05:35:03.958Z,95109.65
2018-09-05T05:37:32.680Z,95114.44
2018-09-05T05:40:06.037Z,95105.47
2018-09-05T05:42:35.641Z,95100.27
2018-09-05T05:45:04.787Z,95102.48
2018-09-05T05:47:34.469Z,95097.11
2018-09-05T05:50:04.050Z,95101.94
2018-09-05T05:52:33.497Z,95100.86
2018-09-05T05:55:03.180Z,95098.29
2018-09-05T05:57:31.942Z,95095.28
2018-09-05T06:00:00.956Z,95099.36
2018-09-05T06:02:29.774Z,95096.53
2018-09-05T06:04:58.684Z,95111.36
2018-09-05T06:07:27.533Z,95102.32
2018-09-05T06:09:56.302Z,95111.73
2018-09-05T06:12:25.109Z,95111.84
2018-09-05T06:14:54.429Z,95108.77
2018-09-05T06:17:23.189Z,95103.24
2018-09-05T06:19:52.510Z,95102.32
2018-09-05T06:22:21.331Z,95105.56
2018-09-05T06:24:50.355Z,95102.37
2018-09-05T06:27:19.890Z,95106.83
2018-09-05T06:29:48.675Z,95101.89
2018-09-05T06:32:17.575Z,95100.57
2018-09-05T06:34:46.452Z,95107.78
2018-09-05T06:37:15.089Z,95104.02
2018-09-05T06:39:44.083Z,95104.14
2018-09-05T06:42:12.768Z,95102.27
2018-09-05T06:44:41.514Z,95108.68
2018-09-05T06:47:10.908Z,95107.45
2018-09-05T06:49:40.346Z,95109.58
2018-09-05T06:52:09.157Z,95100.52
2018-09-05T06:54:38.035Z,95101.15
2018-09-05T06:57:06.931Z,95096.23
2018-09-05T06:59:35.717Z,95089.05
2018-09-05T07:02:04.533Z,95100.11
2018-09-05T07:04:33.404Z,95099.87
2018-09-05T07:07:02.219Z,95094.78
2018-09-05T07:09:30.927Z,95089.27
2018-09-05T07:11:59.747Z,95090.93
2018-09-05T07:14:28.747Z,95097.11
2018-09-05T07:16:57.522Z,95106.70
2018-09-05T07:19:26.351Z,95106.48
2018-09-05T07:21:55.219Z,95100.81
2018-09-05T07:24:23.898Z,95090.44
2018-09-05T07:26:52.717Z,95094.76
2018-09-05T07:29:21.547Z,95097.50
2018-09-05T07:31:50.285Z,95099.27
2018-09-05T07:34:19.082Z,95099.83
2018-09-05T07:36:48.092Z,95101.66
2018-09-05T07:39:16.964Z,95105.84
2018-09-05T07:41:45.699Z,95100.23
2018-09-05T07:44:14.580Z,95105.50
2018-09-05T07:46:43.408Z,95106.69
2018-09-05T07:49:12.636Z,95112.11
2018-09-05T07:51:41.557Z,95107.11
2018-09-05T07:54:10.399Z,95116.71
2018-09-05T07:56:39.232Z,95114.36
2018-09-05T07:59:07.999Z,95116.30
2018-09-05T08:01:36.661Z,95117.80
2018-09-05T08:04:06.498Z,95110.98
2018-09-05T08:06:35.244Z,95109.58
2018-09-05T08:09:06.023Z,95110.33
2018-09-05T08:11:34.856Z,95104.25
2018-09-05T08:14:03.544Z,95101.39
2018-09-05T08:16:32.518Z,95096.70
2018-09-05T08:19:01.200Z,95098.81
2018-09-05T08:21:29.908Z,95091.02
2018-09-05T08:23:58.729Z,95089.53
2018-09-05T08:26:27.467Z,95087.22
2018-09-05T08:28:56.426Z,95089.78
2018-09-05T08:31:25.084Z,95087.45
2018-09-05T08:33:53.708Z,95082.84
2018-09-05T08:36:22.721Z,95083.25
2018-09-05T08:38:51.132Z,95074.77
2018-09-05T08:41:19.830Z,95079.58
2018-09-05T08:43:48.543Z,95075.99
2018-09-05T08:46:17.279Z,95078.04
2018-09-05T08:48:45.945Z,95078.42
2018-09-05T08:51:14.836Z,95069.70
2018-09-05T08:53:43.675Z,95074.33
2018-09-05T08:56:12.669Z,95074.08
2018-09-05T08:58:41.409Z,95067.89
2018-09-05T09:01:10.072Z,95073.77
2018-09-05T09:03:38.783Z,95069.03
2018-09-05T09:06:07.698Z,95068.43
2018-09-05T09:08:36.567Z,95067.13
2018-09-05T09:11:05.455Z,95068.94
2018-09-05T09:13:34.143Z,95062.78
2018-09-05T09:16:02.986Z,95065.64
2018-09-05T09:18:31.905Z,95062.24
2018-09-05T09:21:00.598Z,95054.49
2018-09-05T09:23:29.255Z,95062.15
2018-09-05T09:25:57.982Z,95054.20
2018-09-05T09:28:26.940Z,95056.55
2018-09-05T09:30:55.867Z,95045.84
2018-09-05T09:33:24.661Z,95046.94
2018-09-05T09:35:53.342Z,95037.36
2018-09-05T09:38:22.431Z,95037.39
2018-09-05T09:40:51.135Z,95036.54
2018-09-05T09:43:19.914Z,95034.30
2018-09-05T09:45:48.678Z,95030.08
2018-09-05T09:48:17.479Z,95025.63
2018-09-05T09:50:46.129Z,95021.23
2018-09-05T09:53:14.970Z,95019.75
2018-09-05T09:55:43.653Z,95024.94
2018-09-05T09:58:12.299Z,95020.88
2018-09-05T10:00:46.307Z,95015.40
2018-09-05T10:03:20.278Z,95015.17
2018-09-05T10:05:54.321Z,95023.95
2018-09-05T10:08:28.213Z,95007.56
2018-09-05T10:11:07.000Z,95020.69
2018-09-05T10:13:40.726Z,95017.66
2018-09-05T10:16:14.706Z,95013.08
2018-09-05T10:18:45.622Z,95003.83
2018-09-05T10:21:14.314Z,95005.19
2018-09-05T10:23:43.231Z,95001.55
2018-09-05T10:26:12.129Z,95003.97
2018-09-05T10:28:40.772Z,95006.23
2018-09-05T10:31:09.521Z,95010.69
2018-09-05T10:33:38.386Z,95002.82
2018-09-05T10:36:07.309Z,94999.42
2018-09-05T10:38:36.039Z,94991.34
2018-09-05T10:41:04.757Z,94991.44
2018-09-05T10:43:33.407Z,94987.39
2018-09-05T10:46:02.060Z,94994.67
2018-09-05T10:48:30.821Z,94992.63
2018-09-05T10:51:00.155Z,94997.53
2018-09-05T10:53:29.045Z,94997.60
2018-09-05T10:55:57.891Z,94985.17
2018-09-05T10:58:26.775Z,94987.70
2018-09-05T11:00:55.578Z,94993.09
2018-09-05T11:03:24.459Z,94987.28
2018-09-05T11:05:53.184Z,94983.21
2018-09-05T11:08:21.930Z,94981.77
2018-09-05T11:10:50.820Z,94981.97
2018-09-05T11:13:19.650Z,94980.95
2018-09-05T11:15:48.538Z,94971.56
2018-09-05T11:18:18.003Z,94970.41
2018-09-05T11:20:46.771Z,94971.08
2018-09-05T11:23:15.696Z,94966.84
2018-09-05T11:25:45.201Z,94961.08
2018-09-05T11:28:14.100Z,94956.78
2018-09-05T11:30:42.967Z,94957.69
2018-09-05T11:33:11.814Z,94960.45
2018-09-05T11:35:40.449Z,94953.20
2018-09-05T11:38:09.143Z,94944.69
2018-09-05T11:40:38.108Z,94947.51
2018-09-05T11:43:06.854Z,94939.52
2018-09-05T11:45:35.815Z,94943.05
2018-09-05T11:48:04.554Z,94941.20
2018-09-05T11:50:33.181Z,94942.52
2018-09-05T11:53:01.906Z,94937.53
2018-09-05T11:55:30.807Z,94931.87
2018-09-05T11:57:59.743Z,94928.52
2018-09-05T12:00:28.437Z,94934.27
2018-09-05T12:02:57.246Z,94923.11
2018-09-05T12:05:26.125Z,94936.38
2018-09-05T12:07:54.783Z,94930.30
2018-09-05T12:10:23.596Z,94922.98
2018-09-05T12:12:52.433Z,94915.88
2018-09-05T12:15:21.176Z,94920.72
2018-09-05T12:17:50.153Z,94924.73
2018-09-05T12:20:57.253Z,94925.39
2018-09-05T12:23:26.131Z,94917.02
2018-09-05T12:25:54.867Z,94912.98
2018-09-05T12:28:23.872Z,94910.11
2018-09-05T12:30:52.695Z,94916.38
2018-09-05T12:33:21.338Z,94914.51
2018-09-05T12:35:50.051Z,94904.59
2018-09-05T12:38:18.787Z,94903.81
2018-09-05T12:40:47.446Z,94905.50
2018-09-05T12:43:16.170Z,94748.69
2018-09-05T12:45:44.790Z,94893.48
2018-09-05T12:48:13.461Z,94893.47
2018-09-05T12:50:42.114Z,94902.41
2018-09-05T12:53:10.819Z,94887.76
2018-09-05T12:55:39.479Z,94902.21
2018-09-05T12:58:08.256Z,94893.77
2018-09-05T13:00:37.155Z,94899.83
2018-09-05T13:03:05.878Z,94905.69
2018-09-05T13:05:34.550Z,94896.59
2018-09-05T13:08:03.220Z,94896.25
2018-09-05T13:10:32.039Z,94883.38
2018-09-05T13:13:00.716Z,94897.31
2018-09-05T13:15:29.572Z,94898.62
2018-09-05T13:17:58.198Z,94891.69
2018-09-05T13:20:26.815Z,94891.55
2018-09-05T13:22:55.532Z,94893.08
2018-09-05T13:25:24.232Z,94895.66
2018-09-05T13:27:52.894Z,94886.72
2018-09-05T13:30:21.593Z,94891.15
2018-09-05T13:32:50.257Z,94897.24
2018-09-05T13:35:19.000Z,94892.23
2018-09-05T13:37:47.630Z,94885.05
2018-09-05T13:40:16.375Z,94892.94
2018-09-05T13:42:45.223Z,94896.25
2018-09-05T13:45:14.767Z,94887.40
2018-09-05T13:47:43.726Z,94892.27
2018-09-05T13:50:12.533Z,94897.28
2018-09-05T13:52:41.362Z,94901.84
2018-09-05T13:55:10.171Z,94887.20
2018-09-05T13:57:39.086Z,94897.92
2018-09-05T14:00:14.018Z,94895.58
2018-09-05T14:02:42.928Z,94913.91
2018-09-05T14:05:11.787Z,94918.84
2018-09-05T14:07:40.803Z,94911.86
2018-09-05T14:10:09.571Z,94906.06
2018-09-05T14:12:38.397Z,94913.11
2018-09-05T14:15:07.392Z,94915.92
2018-09-05T14:17:36.398Z,94919.00
2018-09-05T14:20:05.657Z,94920.77
2018-09-05T14:22:34.473Z,94919.98
2018-09-05T14:25:03.457Z,94930.55
2018-09-05T14:27:33.221Z,94920.06
2018-09-05T14:30:02.036Z,94938.31
2018-09-05T14:32:30.829Z,94939.58
2018-09-05T14:34:59.550Z,94943.52
2018-09-05T14:37:28.519Z,94934.77
2018-09-05T14:39:57.326Z,94933.88
2018-09-05T14:42:26.666Z,94933.18
2018-09-05T14:44:55.409Z,94935.41
2018-09-05T14:47:24.876Z,94941.88
2018-09-05T14:49:53.651Z,94948.33
2018-09-05T14:52:22.415Z,94948.56
2018-09-05T14:54:51.096Z,94956.89
2018-09-05T14:57:20.062Z,94950.80
2018-09-05T14:59:48.838Z,94955.80
2018-09-05T15:02:17.917Z,94956.34
2018-09-05T15:04:46.663Z,94954.39
2018-09-05T15:07:15.333Z,94959.10
2018-09-05T15:09:44.075Z,94965.19
2018-09-05T15:12:12.807Z,94963.17
2018-09-05T15:14:41.558Z,94948.10
2018-09-05T15:17:10.293Z,94962.63
2018-09-05T15:19:38.941Z,94956.73
2018-09-05T15:22:07.683Z,94955.98
2018-09-05T15:24:36.441Z,94965.34
2018-09-05T15:27:05.379Z,94958.74
2018-09-05T15:29:34.128Z,94961.83
2018-09-05T15:32:02.875Z,94960.84
2018-09-05T15:34:31.667Z,94969.38
2018-09-05T15:37:00.467Z,94969.02
2018-09-05T15:39:29.279Z,94967.52
2018-09-05T15:41:58.009Z,94967.06
2018-09-05T15:44:26.739Z,94969.09
2018-09-05T15:46:55.566Z,94973.47
2018-09-05T15:49:24.213Z,94972.48
2018-09-05T15:51:55.101Z,94980.33
2018-09-05T15:54:24.680Z,94983.84
2018-09-05T15:56:53.979Z,94989.06
2018-09-05T15:59:23.431Z,94990.83
2018-09-05T16:01:52.991Z,94982.64
2018-09-05T16:04:21.701Z,94991.78
2018-09-05T16:06:50.447Z,94988.09
2018-09-05T16:09:19.238Z,94990.89
2018-09-05T16:11:47.957Z,94988.61
2018-09-05T16:14:17.890Z,94990.66
2018-09-05T16:16:46.643Z,94990.34
2018-09-05T16:19:15.322Z,94995.86
2018-09-05T16:21:44.049Z,94996.08
2018-09-05T16:24:12.771Z,95001.20
2018-09-05T16:26:41.475Z,94999.63
2018-09-05T16:29:10.162Z,94998.26
2018-09-05T16:31:38.864Z,94997.16
2018-09-05T16:34:07.817Z,94985.01
2018-09-05T16:36:36.559Z,94994.12
2018-09-05T16:39:07.699Z,94997.25
2018-09-05T16:41:36.698Z,94991.98
2018-09-05T16:44:05.546Z,94997.23
2018-09-05T16:46:34.273Z,94991.69
2018-09-05T16:49:03.850Z,95006.07
2018-09-05T16:51:32.541Z,94993.52
2018-09-05T16:54:01.528Z,95003.17
2018-09-05T16:56:30.367Z,95003.47
2018-09-05T16:59:00.007Z,95012.98
2018-09-05T17:01:28.715Z,95009.97
2018-09-05T17:03:57.395Z,95010.70
2018-09-05T17:06:26.164Z,95009.58
2018-09-05T17:08:55.056Z,95011.89
2018-09-05T17:11:23.910Z,95016.44
2018-09-05T17:13:52.632Z,95020.36
2018-09-05T17:16:21.424Z,94951.30
2018-09-05T17:18:50.108Z,95013.41
2018-09-05T17:21:18.787Z,95017.03
2018-09-05T17:23:47.447Z,95021.56
2018-09-05T17:26:16.138Z,95022.30
2018-09-05T17:28:44.885Z,95024.48
2018-09-05T17:31:14.091Z,95028.64
2018-09-05T17:33:42.814Z,95030.59
2018-09-05T17:36:11.606Z,95031.92
2018-09-05T17:38:40.369Z,95044.72
2018-09-05T17:41:09.150Z,95044.89
2018-09-05T17:43:38.018Z,95051.75
2018-09-05T17:46:06.834Z,95047.47
2018-09-05T17:48:35.697Z,95052.61
2018-09-05T17:51:05.151Z,95053.44
2018-09-05T17:53:35.530Z,95052.48
2018-09-05T17:56:04.434Z,95054.08
2018-09-05T17:58:33.200Z,95061.14
2018-09-05T18:01:04.069Z,95071.78
2018-09-05T18:03:32.990Z,95068.50
2018-09-05T18:06:01.904Z,95075.52
2018-09-05T18:08:30.729Z,95081.58
2018-09-05T18:10:59.580Z,95068.50
2018-09-05T18:13:29.191Z,94722.13
2018-09-05T18:15:58.647Z,95070.70
2018-09-05T18:18:27.638Z,95066.29
2018-09-05T18:20:56.580Z,95070.03
2018-09-05T18:23:26.042Z,95066.09
2018-09-05T18:25:54.866Z,95069.44
2018-09-05T18:28:23.652Z,95070.20
2018-09-05T18:30:52.728Z,95069.81
2018-09-05T18:33:22.187Z,95075.88
2018-09-05T18:35:51.250Z,95074.31
2018-09-05T18:38:21.406Z,95091.36
2018-09-05T18:40:50.264Z,95076.29
2018-09-05T18:43:19.834Z,95079.44
2018-09-05T18:45:48.710Z,95078.63
2018-09-05T18:48:17.579Z,95074.71
2018-09-05T18:50:46.800Z,95077.45
2018-09-05T18:53:15.544Z,95080.02
2018-09-05T18:55:45.528Z,95075.53
2018-09-05T18:58:14.401Z,95087.30
2018-09-05T19:00:43.391Z,95081.06
2018-09-05T19:03:12.879Z,95083.22
2018-09-05T19:05:41.774Z,95078.35
2018-09-05T19:08:11.297Z,95079.14
2018-09-05T19:10:40.802Z,95079.92
2018-09-05T19:13:10.329Z,95070.88
2018-09-05T19:15:39.187Z,95076.75
2018-09-05T19:18:08.926Z,95074.22
2018-09-05T19:20:37.932Z,95072.67
2018-09-05T19:23:06.881Z,95072.09
2018-09-05T19:25:35.921Z,95073.08
2018-09-05T19:28:04.667Z,95074.83
2018-09-05T19:30:33.490Z,95072.88
2018-09-05T19:33:02.428Z,95080.88
2018-09-05T19:35:31.851Z,95078.73
2018-09-05T19:38:01.471Z,95075.81
2018-09-05T19:40:39.028Z,95082.30
2018-09-05T19:43:08.039Z,95077.59
2018-09-05T19:45:36.839Z,95074.30
2018-09-05T19:48:05.719Z,95076.22
2018-09-05T19:50:34.590Z,95077.03
2018-09-05T19:53:03.862Z,95067.22
2018-09-05T19:55:32.608Z,95075.66
2018-09-05T19:58:01.564Z,95067.64
2018-09-05T20:00:30.376Z,95068.43
2018-09-05T20:02:59.298Z,95068.83
2018-09-05T20:05:28.083Z,94998.16
2018-09-05T20:07:57.753Z,95066.33
2018-09-05T20:10:26.704Z,95065.94
2018-09-05T20:12:55.650Z,95062.20
2018-09-05T20:15:24.718Z,95065.73
2018-09-05T20:17:53.718Z,95068.48
2018-09-05T20:20:22.721Z,95068.10
2018-09-05T20:22:51.541Z,95065.56
2018-09-05T20:25:20.441Z,95065.15
2018-09-05T20:27:49.322Z,95062.22
2018-09-05T20:30:18.203Z,95069.27
2018-09-05T20:32:47.122Z,95068.28
2018-09-05T20:35:16.139Z,95072.77
2018-09-05T20:37:45.013Z,95074.53
2018-09-05T20:40:14.105Z,95068.28
2018-09-05T20:42:43.393Z,95063.41
2018-09-05T20:45:12.175Z,95067.70
2018-09-05T20:47:40.925Z,95067.71
2018-09-05T20:50:09.689Z,95065.14
2018-09-05T20:52:38.633Z,95066.52
2018-09-05T20:55:07.664Z,95064.77
2018-09-05T20:57:36.397Z,95062.61
2018-09-05T21:00:07.890Z,94548.69
2018-09-05T21:02:36.793Z,95062.82
2018-09-05T21:05:05.762Z,95064.38
2018-09-05T21:07:34.648Z,95073.95
2018-09-05T21:10:03.703Z,95071.02
2018-09-05T21:12:32.421Z,95077.66
2018-09-05T21:15:01.369Z,95071.20
2018-09-05T21:17:30.221Z,95070.23
2018-09-05T21:19:59.060Z,95071.42
2018-09-05T21:22:27.943Z,95071.80
2018-09-05T21:24:56.734Z,95073.93
2018-09-05T21:27:25.446Z,95065.55
2018-09-05T21:29:55.473Z,95067.51
2018-09-05T21:32:24.262Z,95069.25
2018-09-05T21:34:52.975Z,95059.31
2018-09-05T21:37:23.261Z,95060.66
2018-09-05T21:39:52.075Z,95062.03
2018-09-05T21:42:20.897Z,95058.70
2018-09-05T21:44:49.792Z,95057.73
2018-09-05T21:47:18.594Z,95054.20
2018-09-05T21:49:47.279Z,95056.95
2018-09-05T21:52:16.150Z,95060.05
2018-09-05T21:54:44.961Z,95053.80
2018-09-05T21:57:13.691Z,95049.11
2018-09-05T21:59:42.491Z,95049.70
2018-09-05T22:02:11.886Z,95044.23
2018-09-05T22:04:40.831Z,95050.47
2018-09-05T22:07:09.743Z,95050.81
2018-09-05T22:09:38.534Z,95045.00
2018-09-05T22:12:07.411Z,95010.80
2018-09-05T22:14:36.215Z,95044.64
2018-09-05T22:17:05.699Z,95047.89
2018-09-05T22:19:34.541Z,95045.94
2018-09-05T22:22:03.449Z,95042.81
2018-09-05T22:24:32.334Z,95052.16
2018-09-05T22:27:01.104Z,95047.27
2018-09-05T22:29:30.479Z,95050.21
2018-09-05T22:31:59.370Z,95049.63
2018-09-05T22:34:28.235Z,95045.91
2018-09-05T22:36:56.992Z,95054.87
2018-09-05T22:39:25.800Z,95049.61
2018-09-05T22:41:54.607Z,95047.48
2018-09-05T22:44:34.489Z,95049.63
2018-09-05T22:47:14.480Z,95054.70
2018-09-05T22:50:59.761Z,95049.06
2018-09-05T22:56:56.500Z,95047.27
2018-09-05T23:00:35.897Z,95045.36
2018-09-05T23:03:15.752Z,95034.05
2018-09-05T23:05:55.809Z,95046.52
2018-09-05T23:08:34.103Z,95035.19
2018-09-05T23:11:14.162Z,95034.59
2018-09-05T23:13:58.220Z,95041.20
2018-09-05T23:16:38.203Z,95026.59
2018-09-05T23:19:33.162Z,95040.40
2018-09-05T23:22:01.948Z,95043.73
2018-09-05T23:24:30.741Z,95034.17
2018-09-05T23:26:59.471Z,95043.92
2018-09-05T23:29:28.210Z,95034.95
2018-09-05T23:32:00.829Z,95029.09
2018-09-05T23:34:29.765Z,95039.78
2018-09-05T23:36:58.480Z,95041.14
2018-09-05T23:39:27.169Z,95047.36
2018-09-05T23:41:55.831Z,95037.60
2018-09-05T23:44:24.740Z,95040.33
2018-09-05T23:46:53.629Z,95040.09
2018-09-05T23:49:22.414Z,95044.77
2018-09-05T23:51:51.247Z,95048.06
2018-09-05T23:54:19.863Z,95055.67
2018-09-05T23:56:48.748Z,95057.47
2018-09-05T23:59:17.580Z,95059.38
